createdAt,value
2018-05-03T00:00:52.020Z,78.16
2018-05-03T00:01:52.116Z,78.16
2018-05-03T00:02:52.210Z,77.59
2018-05-03T00:03:52.304Z,77.78
2018-05-03T00:04:52.399Z,77.69
2018-05-03T00:05:52.482Z,78.16
2018-05-03T00:06:52.593Z,78.25
2018-05-03T00:07:52.688Z,78.25
2018-05-03T00:08:52.781Z,78.35
2018-05-03T00:09:52.878Z,78.31
2018-05-03T00:10:52.972Z,78.12
2018-05-03T00:11:53.070Z,78.03
2018-05-03T00:12:53.164Z,78.22
2018-05-03T00:13:53.262Z,77.93
2018-05-03T00:14:53.360Z,78.41
2018-05-03T00:15:53.450Z,78.50
2018-05-03T00:16:53.545Z,78.31
2018-05-03T00:17:53.641Z,78.98
2018-05-03T00:18:53.753Z,78.31
2018-05-03T00:19:53.854Z,78.50
2018-05-03T00:20:53.947Z,78.98
2018-05-03T00:21:54.039Z,78.50
2018-05-03T00:22:54.136Z,78.78
2018-05-03T00:23:54.231Z,78.50
2018-05-03T00:24:54.328Z,78.50
2018-05-03T00:25:54.425Z,78.59
2018-05-03T00:26:54.518Z,78.88
2018-05-03T00:27:54.616Z,78.88
2018-05-03T00:28:54.710Z,78.65
2018-05-03T00:29:54.805Z,78.88
2018-05-03T00:30:54.904Z,78.98
2018-05-03T00:31:54.998Z,78.85
2018-05-03T00:32:55.090Z,79.32
2018-05-03T00:33:55.184Z,79.41
2018-05-03T00:34:55.277Z,79.03
2018-05-03T00:35:55.373Z,79.03
2018-05-03T00:36:55.470Z,79.22
2018-05-03T00:37:55.562Z,79.13
2018-05-03T00:38:55.656Z,79.70
2018-05-03T00:39:55.753Z,79.60
2018-05-03T00:40:55.850Z,79.70
2018-05-03T00:41:55.942Z,80.18
2018-05-03T00:42:56.039Z,80.18
2018-05-03T00:43:56.133Z,80.36
2018-05-03T00:44:56.229Z,80.18
2018-05-03T00:45:56.322Z,79.32
2018-05-03T00:46:56.410Z,79.89
2018-05-03T00:47:56.503Z,79.99
2018-05-03T00:48:56.601Z,80.27
2018-05-03T00:49:56.697Z,80.55
2018-05-03T00:50:56.792Z,81.03
2018-05-03T00:51:56.911Z,80.55
2018-05-03T00:52:57.005Z,80.52
2018-05-03T00:53:57.106Z,80.75
2018-05-03T00:54:57.199Z,81.03
2018-05-03T00:55:57.297Z,81.95
2018-05-03T00:56:57.387Z,81.95
2018-05-03T00:57:57.481Z,82.14
2018-05-03T00:58:57.576Z,82.04
2018-05-03T00:59:57.672Z,82.14
2018-05-03T01:00:57.766Z,81.95
2018-05-03T01:01:57.863Z,81.85
2018-05-03T01:02:57.966Z,81.85
2018-05-03T01:03:58.076Z,82.23
2018-05-03T01:04:58.202Z,82.04
2018-05-03T01:05:58.312Z,82.32
2018-05-03T01:06:58.407Z,81.76
2018-05-03T01:07:58.501Z,81.76
2018-05-03T01:08:58.598Z,82.23
2018-05-03T01:09:58.691Z,82.61
2018-05-03T01:10:58.786Z,83.18
2018-05-03T01:11:58.880Z,82.80
2018-05-03T01:12:58.980Z,82.90
2018-05-03T01:13:59.071Z,82.51
2018-05-03T01:14:59.164Z,82.70
2018-05-03T01:15:59.356Z,82.04
2018-05-03T01:16:59.288Z,82.70
2018-05-03T01:17:59.380Z,82.42
2018-05-03T01:18:59.470Z,82.51
2018-05-03T01:19:59.575Z,82.32
2018-05-03T01:20:59.671Z,82.51
2018-05-03T01:21:59.772Z,82.42
2018-05-03T01:22:59.911Z,82.04
2018-05-03T01:24:00.005Z,82.23
2018-05-03T01:25:00.093Z,81.47
2018-05-03T01:26:00.183Z,82.04
2018-05-03T01:27:00.272Z,81.85
2018-05-03T01:28:00.377Z,81.76
2018-05-03T01:29:00.512Z,81.66
2018-05-03T01:30:00.606Z,81.47
2018-05-03T01:31:00.702Z,81.18
2018-05-03T01:32:00.788Z,81.09
2018-05-03T01:33:00.883Z,81.18
2018-05-03T01:34:01.011Z,80.90
2018-05-03T01:35:01.095Z,80.61
2018-05-03T01:36:01.201Z,80.71
2018-05-03T01:37:01.285Z,80.33
2018-05-03T01:38:01.376Z,80.08
2018-05-03T01:39:01.478Z,80.33
2018-05-03T01:40:01.540Z,80.27
2018-05-03T01:41:01.675Z,79.80
2018-05-03T01:42:01.778Z,79.80
2018-05-03T01:43:01.858Z,80.55
2018-05-03T01:44:01.956Z,80.18
2018-05-03T01:45:02.041Z,79.99
2018-05-03T01:46:02.175Z,79.70
2018-05-03T01:47:02.286Z,80.08
2018-05-03T01:48:02.375Z,80.27
2018-05-03T01:49:02.472Z,79.99
2018-05-03T01:50:02.616Z,79.89
2018-05-03T01:51:02.747Z,79.80
2018-05-03T01:52:02.847Z,79.99
2018-05-03T01:53:02.944Z,79.70
2018-05-03T01:54:03.031Z,80.08
2018-05-03T01:55:03.132Z,79.80
2018-05-03T01:56:03.247Z,80.23
2018-05-03T01:57:03.337Z,80.18
2018-05-03T01:58:03.420Z,80.55
2018-05-03T01:59:03.548Z,80.55
2018-05-03T02:00:03.630Z,80.94
2018-05-03T02:01:03.712Z,81.13
2018-05-03T02:02:03.822Z,80.75
2018-05-03T02:03:03.901Z,80.94
2018-05-03T02:04:03.993Z,80.55
2018-05-03T02:05:04.087Z,80.84
2018-05-03T02:06:04.192Z,81.03
2018-05-03T02:07:04.309Z,81.13
2018-05-03T02:08:04.422Z,81.03
2018-05-03T02:09:04.499Z,81.03
2018-05-03T02:10:04.594Z,81.13
2018-05-03T02:11:04.685Z,81.41
2018-05-03T02:12:04.799Z,81.32
2018-05-03T02:13:04.895Z,81.03
2018-05-03T02:14:05.032Z,80.94
2018-05-03T02:15:05.134Z,80.94
2018-05-03T02:16:05.239Z,81.32
2018-05-03T02:17:05.323Z,81.60
2018-05-03T02:18:05.418Z,81.60
2018-05-03T02:19:05.520Z,81.51
2018-05-03T02:20:05.639Z,81.13
2018-05-03T02:21:05.724Z,81.79
2018-05-03T02:22:05.805Z,81.23
2018-05-03T02:23:05.897Z,81.32
2018-05-03T02:24:05.994Z,81.23
2018-05-03T02:25:06.083Z,81.51
2018-05-03T02:26:06.171Z,81.41
2018-05-03T02:27:06.266Z,81.66
2018-05-03T02:28:06.354Z,82.32
2018-05-03T02:29:06.531Z,82.70
2018-05-03T02:30:06.488Z,83.09
2018-05-03T02:31:06.600Z,83.75
2018-05-03T02:32:06.704Z,84.04
2018-05-03T02:33:06.795Z,83.94
2018-05-03T02:34:06.879Z,83.94
2018-05-03T02:35:06.977Z,84.52
2018-05-03T02:36:07.085Z,84.23
2018-05-03T02:37:07.167Z,83.85
2018-05-03T02:38:07.257Z,83.28
2018-05-03T02:39:07.351Z,82.99
2018-05-03T02:40:07.459Z,82.99
2018-05-03T02:41:07.559Z,82.70
2018-05-03T02:42:07.657Z,82.70
2018-05-03T02:43:07.754Z,82.51
2018-05-03T02:44:07.851Z,82.51
2018-05-03T02:45:07.947Z,81.98
2018-05-03T02:46:08.053Z,81.98
2018-05-03T02:47:08.159Z,82.37
2018-05-03T02:48:08.250Z,81.70
2018-05-03T02:49:08.382Z,82.27
2018-05-03T02:50:08.476Z,81.70
2018-05-03T02:51:08.572Z,82.18
2018-05-03T02:52:08.664Z,82.18
2018-05-03T02:53:08.758Z,82.08
2018-05-03T02:54:08.878Z,81.76
2018-05-03T02:55:08.979Z,82.18
2018-05-03T02:56:09.087Z,81.51
2018-05-03T02:57:09.182Z,81.70
2018-05-03T02:58:09.277Z,81.89
2018-05-03T02:59:09.362Z,81.60
2018-05-03T03:00:09.457Z,81.23
2018-05-03T03:01:09.555Z,81.23
2018-05-03T03:02:09.650Z,81.60
2018-05-03T03:03:09.742Z,81.23
2018-05-03T03:04:09.865Z,81.32
2018-05-03T03:05:09.965Z,81.60
2018-05-03T03:06:10.071Z,81.13
2018-05-03T03:07:10.181Z,81.70
2018-05-03T03:08:10.274Z,81.70
2018-05-03T03:09:10.375Z,81.79
2018-05-03T03:10:10.478Z,81.60
2018-05-03T03:11:10.573Z,81.70
2018-05-03T03:12:10.675Z,81.98
2018-05-03T03:13:10.771Z,81.98
2018-05-03T03:14:10.854Z,81.89
2018-05-03T03:15:10.944Z,82.18
2018-05-03T03:16:11.037Z,81.89
2018-05-03T03:17:11.130Z,82.27
2018-05-03T03:18:11.228Z,82.08
2018-05-03T03:19:11.311Z,81.79
2018-05-03T03:20:11.437Z,81.98
2018-05-03T03:21:11.508Z,81.98
2018-05-03T03:22:11.605Z,82.37
2018-05-03T03:23:11.708Z,82.27
2018-05-03T03:24:11.794Z,82.37
2018-05-03T03:25:11.886Z,82.37
2018-05-03T03:26:11.983Z,81.60
2018-05-03T03:27:12.077Z,82.27
2018-05-03T03:28:12.159Z,82.37
2018-05-03T03:29:12.273Z,82.18
2018-05-03T03:30:12.368Z,82.27
2018-05-03T03:31:12.465Z,82.18
2018-05-03T03:32:12.560Z,82.27
2018-05-03T03:33:12.655Z,82.37
2018-05-03T03:34:12.750Z,81.79
2018-05-03T03:35:12.841Z,81.79
2018-05-03T03:36:12.940Z,81.70
2018-05-03T03:37:13.032Z,81.70
2018-05-03T03:38:13.129Z,81.89
2018-05-03T03:39:13.221Z,82.18
2018-05-03T03:40:13.320Z,82.18
2018-05-03T03:41:13.411Z,81.79
2018-05-03T03:42:13.509Z,82.27
2018-05-03T03:43:13.598Z,82.18
2018-05-03T03:44:13.688Z,82.18
2018-05-03T03:45:13.784Z,82.27
2018-05-03T03:46:13.879Z,82.08
2018-05-03T03:47:13.974Z,81.98
2018-05-03T03:48:14.072Z,81.79
2018-05-03T03:49:14.164Z,81.89
2018-05-03T03:50:14.259Z,82.08
2018-05-03T03:51:14.353Z,82.27
2018-05-03T03:52:14.447Z,82.18
2018-05-03T03:53:14.599Z,82.08
2018-05-03T03:54:14.662Z,82.27
2018-05-03T03:55:14.756Z,82.04
2018-05-03T03:56:14.853Z,81.79
2018-05-03T03:57:14.949Z,82.37
2018-05-03T03:58:15.042Z,82.18
2018-05-03T03:59:15.139Z,81.76
2018-05-03T04:00:15.225Z,82.37
2018-05-03T04:01:15.308Z,81.85
2018-05-03T04:02:15.406Z,82.42
2018-05-03T04:03:15.513Z,82.51
2018-05-03T04:04:15.611Z,83.09
2018-05-03T04:05:15.702Z,83.85
2018-05-03T04:06:15.798Z,83.94
2018-05-03T04:07:15.892Z,83.75
2018-05-03T04:08:15.985Z,83.85
2018-05-03T04:09:16.085Z,83.85
2018-05-03T04:10:16.181Z,84.13
2018-05-03T04:11:16.275Z,84.04
2018-05-03T04:12:16.373Z,83.28
2018-05-03T04:13:16.469Z,82.99
2018-05-03T04:14:16.561Z,83.09
2018-05-03T04:15:16.657Z,83.28
2018-05-03T04:16:16.753Z,82.93
2018-05-03T04:17:16.848Z,82.75
2018-05-03T04:18:16.946Z,82.65
2018-05-03T04:19:17.044Z,82.46
2018-05-03T04:20:17.138Z,82.08
2018-05-03T04:21:17.238Z,82.27
2018-05-03T04:22:17.386Z,82.37
2018-05-03T04:23:17.428Z,82.37
2018-05-03T04:24:17.523Z,81.98
2018-05-03T04:25:17.617Z,82.08
2018-05-03T04:26:17.715Z,82.27
2018-05-03T04:27:17.810Z,82.27
2018-05-03T04:28:17.906Z,82.18
2018-05-03T04:29:18.001Z,82.37
2018-05-03T04:30:18.096Z,82.08
2018-05-03T04:31:18.191Z,82.18
2018-05-03T04:32:18.285Z,82.08
2018-05-03T04:33:18.383Z,81.51
2018-05-03T04:34:18.477Z,81.89
2018-05-03T04:35:18.572Z,81.32
2018-05-03T04:36:18.666Z,81.51
2018-05-03T04:37:18.763Z,81.60
2018-05-03T04:38:18.864Z,81.46
2018-05-03T04:39:18.954Z,81.26
2018-05-03T04:40:19.050Z,81.74
2018-05-03T04:41:19.149Z,81.23
2018-05-03T04:42:19.240Z,81.41
2018-05-03T04:43:19.337Z,81.26
2018-05-03T04:44:19.436Z,81.36
2018-05-03T04:45:19.527Z,81.36
2018-05-03T04:46:19.622Z,81.26
2018-05-03T04:47:19.739Z,81.46
2018-05-03T04:48:19.833Z,81.46
2018-05-03T04:49:19.932Z,80.88
2018-05-03T04:50:20.024Z,81.17
2018-05-03T04:51:20.122Z,81.07
2018-05-03T04:52:20.216Z,80.88
2018-05-03T04:53:20.311Z,80.79
2018-05-03T04:54:20.410Z,80.98
2018-05-03T04:55:20.505Z,80.88
2018-05-03T04:56:20.602Z,80.69
2018-05-03T04:57:20.698Z,80.88
2018-05-03T04:58:20.795Z,80.60
2018-05-03T04:59:20.891Z,80.88
2018-05-03T05:00:20.987Z,80.60
2018-05-03T05:01:21.078Z,80.79
2018-05-03T05:02:21.235Z,81.07
2018-05-03T05:03:21.267Z,80.98
2018-05-03T05:04:21.363Z,80.79
2018-05-03T05:05:21.459Z,80.69
2018-05-03T05:06:21.559Z,80.41
2018-05-03T05:07:21.668Z,80.02
2018-05-03T05:08:21.765Z,80.12
2018-05-03T05:09:21.859Z,79.78
2018-05-03T05:10:21.959Z,80.26
2018-05-03T05:11:22.054Z,80.16
2018-05-03T05:12:22.216Z,80.35
2018-05-03T05:13:22.247Z,79.88
2018-05-03T05:14:22.350Z,80.54
2018-05-03T05:15:22.440Z,80.26
2018-05-03T05:16:22.539Z,79.40
2018-05-03T05:17:22.633Z,79.30
2018-05-03T05:18:22.731Z,79.21
2018-05-03T05:19:22.828Z,79.40
2018-05-03T05:20:22.920Z,79.11
2018-05-03T05:21:23.012Z,78.83
2018-05-03T05:22:23.106Z,78.64
2018-05-03T05:23:23.204Z,78.92
2018-05-03T05:24:23.304Z,78.64
2018-05-03T05:25:23.397Z,78.83
2018-05-03T05:26:23.493Z,78.92
2018-05-03T05:27:23.596Z,79.21
2018-05-03T05:28:23.691Z,79.68
2018-05-03T05:29:23.789Z,79.68
2018-05-03T05:30:23.885Z,79.40
2018-05-03T05:31:23.980Z,78.54
2018-05-03T05:32:24.076Z,78.16
2018-05-03T05:33:24.174Z,78.16
2018-05-03T05:34:24.272Z,78.35
2018-05-03T05:35:24.367Z,78.16
2018-05-03T05:36:24.464Z,78.16
2018-05-03T05:37:24.559Z,78.10
2018-05-03T05:38:24.727Z,78.67
2018-05-03T05:39:24.757Z,78.67
2018-05-03T05:40:24.850Z,78.30
2018-05-03T05:41:24.943Z,78.10
2018-05-03T05:42:25.029Z,78.20
2018-05-03T05:43:25.107Z,78.20
2018-05-03T05:44:25.219Z,78.20
2018-05-03T05:45:25.306Z,78.01
2018-05-03T05:46:25.403Z,77.72
2018-05-03T05:47:25.529Z,77.34
2018-05-03T05:48:25.620Z,76.86
2018-05-03T05:49:25.739Z,76.96
2018-05-03T05:50:25.848Z,76.39
2018-05-03T05:51:25.943Z,76.48
2018-05-03T05:52:26.042Z,76.01
2018-05-03T05:53:26.139Z,75.91
2018-05-03T05:54:26.237Z,76.29
2018-05-03T05:55:26.332Z,76.48
2018-05-03T05:56:26.429Z,76.01
2018-05-03T05:57:26.529Z,75.76
2018-05-03T05:58:26.625Z,75.91
2018-05-03T05:59:26.719Z,75.76
2018-05-03T06:00:26.815Z,75.76
2018-05-03T06:01:26.910Z,75.76
2018-05-03T06:02:27.014Z,75.57
2018-05-03T06:03:27.110Z,74.90
2018-05-03T06:04:27.202Z,75.09
2018-05-03T06:05:27.303Z,74.99
2018-05-03T06:06:27.398Z,74.61
2018-05-03T06:07:27.495Z,74.80
2018-05-03T06:08:27.585Z,74.52
2018-05-03T06:09:27.696Z,74.80
2018-05-03T06:10:27.946Z,74.04
2018-05-03T06:11:27.887Z,73.94
2018-05-03T06:12:27.986Z,73.75
2018-05-03T06:13:28.090Z,73.66
2018-05-03T06:14:28.185Z,73.56
2018-05-03T06:15:28.282Z,73.85
2018-05-03T06:16:28.377Z,73.50
2018-05-03T06:17:28.474Z,73.22
2018-05-03T06:18:28.572Z,73.50
2018-05-03T06:19:28.670Z,73.12
2018-05-03T06:20:28.768Z,73.12
2018-05-03T06:21:28.876Z,73.03
2018-05-03T06:22:28.975Z,73.12
2018-05-03T06:23:29.077Z,73.22
2018-05-03T06:24:29.174Z,73.07
2018-05-03T06:25:29.272Z,72.58
2018-05-03T06:26:29.356Z,72.30
2018-05-03T06:27:29.450Z,72.30
2018-05-03T06:28:29.549Z,72.49
2018-05-03T06:29:29.649Z,71.92
2018-05-03T06:30:29.756Z,71.53
2018-05-03T06:31:29.981Z,71.25
2018-05-03T06:32:29.971Z,71.25
2018-05-03T06:33:30.078Z,71.06
2018-05-03T06:34:30.166Z,71.34
2018-05-03T06:35:30.292Z,71.25
2018-05-03T06:36:30.426Z,71.15
2018-05-03T06:37:30.519Z,71.63
2018-05-03T06:38:30.650Z,71.72
2018-05-03T06:39:30.728Z,71.25
2018-05-03T06:40:30.837Z,72.20
2018-05-03T06:41:30.998Z,71.92
2018-05-03T06:42:31.089Z,71.28
2018-05-03T06:43:31.302Z,71.28
2018-05-03T06:44:31.284Z,71.38
2018-05-03T06:45:31.388Z,71.70
2018-05-03T06:46:31.469Z,70.56
2018-05-03T06:47:31.655Z,70.17
2018-05-03T06:48:31.755Z,70.01
2018-05-03T06:49:31.873Z,69.25
2018-05-03T06:50:32.202Z,68.96
2018-05-03T06:51:32.138Z,68.49
2018-05-03T06:52:32.271Z,67.94
2018-05-03T06:53:32.266Z,67.56
2018-05-03T06:54:32.361Z,66.61
2018-05-03T06:55:32.567Z,65.55
2018-05-03T06:56:32.673Z,65.45
2018-05-03T06:57:32.810Z,65.58
2018-05-03T06:58:32.938Z,65.30
2018-05-03T06:59:33.037Z,64.82
2018-05-03T07:00:33.223Z,63.29
2018-05-03T07:01:33.286Z,62.90
2018-05-03T07:02:33.275Z,62.43
2018-05-03T07:03:33.516Z,62.23
2018-05-03T07:04:33.524Z,62.90
2018-05-03T07:05:33.649Z,63.32
2018-05-03T07:06:33.682Z,63.22
2018-05-03T07:07:33.784Z,63.03
2018-05-03T07:08:34.055Z,62.93
2018-05-03T07:09:34.031Z,62.84
2018-05-03T07:10:34.134Z,63.13
2018-05-03T07:11:34.231Z,63.22
2018-05-03T07:12:34.324Z,63.22
2018-05-03T07:13:34.457Z,63.03
2018-05-03T07:14:34.584Z,62.93
2018-05-03T07:15:34.688Z,63.32
2018-05-03T07:16:34.783Z,63.03
2018-05-03T07:17:34.871Z,62.07
2018-05-03T07:18:34.969Z,61.98
2018-05-03T07:19:35.072Z,63.03
2018-05-03T07:20:35.167Z,62.17
2018-05-03T07:21:35.263Z,61.21
2018-05-03T07:22:35.364Z,61.98
2018-05-03T07:23:35.464Z,61.60
2018-05-03T07:24:35.561Z,59.39
2018-05-03T07:25:35.651Z,58.22
2018-05-03T07:26:35.761Z,59.17
2018-05-03T07:27:35.853Z,60.41
2018-05-03T07:28:35.970Z,59.84
2018-05-03T07:29:36.080Z,59.84
2018-05-03T07:30:36.171Z,59.65
2018-05-03T07:31:36.266Z,59.65
2018-05-03T07:32:36.355Z,59.17
2018-05-03T07:33:36.446Z,59.08
2018-05-03T07:34:36.575Z,59.20
2018-05-03T07:35:36.696Z,58.72
2018-05-03T07:36:36.788Z,58.40
2018-05-03T07:37:36.910Z,58.50
2018-05-03T07:38:37.014Z,59.05
2018-05-03T07:39:37.138Z,59.05
2018-05-03T07:40:37.268Z,59.65
2018-05-03T07:41:37.352Z,60.03
2018-05-03T07:42:40.440Z,60.13
2018-05-03T07:43:37.590Z,60.03
2018-05-03T07:44:37.687Z,59.65
2018-05-03T07:45:37.851Z,58.95
2018-05-03T07:46:37.841Z,59.43
2018-05-03T07:47:37.929Z,61.12
2018-05-03T07:48:38.095Z,62.71
2018-05-03T07:49:38.117Z,63.29
2018-05-03T07:50:38.327Z,62.81
2018-05-03T07:51:38.318Z,63.23
2018-05-03T07:52:38.411Z,63.23
2018-05-03T07:53:38.570Z,62.84
2018-05-03T07:54:38.672Z,62.94
2018-05-03T07:55:38.786Z,62.55
2018-05-03T07:56:38.965Z,62.65
2018-05-03T07:57:39.069Z,62.84
2018-05-03T07:58:39.186Z,62.94
2018-05-03T07:59:39.277Z,63.19
2018-05-03T08:00:39.375Z,63.96
2018-05-03T08:01:39.478Z,63.86
2018-05-03T08:02:39.588Z,63.29
2018-05-03T08:03:39.707Z,64.15
2018-05-03T08:04:39.821Z,63.67
2018-05-03T08:05:39.920Z,64.15
2018-05-03T08:06:40.030Z,63.23
2018-05-03T08:07:40.128Z,62.94
2018-05-03T08:08:40.216Z,63.99
2018-05-03T08:09:40.343Z,64.09
2018-05-03T08:10:40.528Z,63.32
2018-05-03T08:11:40.533Z,63.89
2018-05-03T08:12:40.684Z,64.56
2018-05-03T08:13:40.743Z,64.47
2018-05-03T08:14:40.848Z,64.18
2018-05-03T08:15:41.043Z,63.99
2018-05-03T08:16:41.049Z,64.18
2018-05-03T08:17:41.161Z,63.32
2018-05-03T08:18:41.267Z,63.89
2018-05-03T08:19:41.471Z,63.80
2018-05-03T08:20:41.443Z,63.89
2018-05-03T08:21:41.558Z,64.18
2018-05-03T08:22:41.772Z,63.42
2018-05-03T08:23:41.748Z,64.12
2018-05-03T08:24:41.902Z,64.12
2018-05-03T08:25:41.987Z,63.35
2018-05-03T08:26:42.082Z,63.06
2018-05-03T08:27:42.175Z,62.87
2018-05-03T08:28:42.274Z,62.77
2018-05-03T08:29:42.369Z,62.40
2018-05-03T08:30:42.481Z,62.84
2018-05-03T08:31:42.618Z,63.35
2018-05-03T08:32:42.663Z,63.35
2018-05-03T08:33:42.857Z,63.29
2018-05-03T08:34:42.957Z,62.04
2018-05-03T08:35:43.060Z,61.21
2018-05-03T08:36:43.160Z,61.88
2018-05-03T08:37:43.279Z,60.35
2018-05-03T08:38:43.377Z,59.84
2018-05-03T08:39:43.466Z,60.51
2018-05-03T08:40:43.605Z,60.41
2018-05-03T08:41:43.747Z,60.51
2018-05-03T08:42:43.743Z,60.51
2018-05-03T08:43:43.845Z,60.64
2018-05-03T08:44:43.943Z,60.64
2018-05-03T08:45:44.232Z,60.16
2018-05-03T08:46:44.135Z,60.32
2018-05-03T08:47:44.222Z,60.73
2018-05-03T08:48:44.316Z,61.21
2018-05-03T08:49:44.400Z,60.67
2018-05-03T08:50:44.550Z,60.86
2018-05-03T08:51:44.600Z,58.75
2018-05-03T08:52:44.702Z,58.84
2018-05-03T08:53:44.817Z,59.61
2018-05-03T08:54:44.913Z,59.04
2018-05-03T08:55:45.023Z,58.27
2018-05-03T08:56:45.115Z,58.65
2018-05-03T08:57:45.212Z,59.93
2018-05-03T08:58:45.325Z,57.60
2018-05-03T08:59:45.439Z,57.95
2018-05-03T09:00:45.533Z,58.72
2018-05-03T09:01:45.709Z,58.65
2018-05-03T09:02:45.807Z,57.70
2018-05-03T09:03:45.862Z,57.15
2018-05-03T09:04:45.941Z,56.48
2018-05-03T09:05:46.048Z,56.86
2018-05-03T09:06:46.198Z,56.48
2018-05-03T09:07:46.330Z,56.67
2018-05-03T09:08:46.428Z,56.96
2018-05-03T09:09:46.497Z,55.83
2018-05-03T09:10:46.628Z,56.41
2018-05-03T09:11:46.736Z,56.89
2018-05-03T09:12:46.865Z,57.01
2018-05-03T09:13:47.078Z,55.29
2018-05-03T09:14:47.026Z,55.57
2018-05-03T09:15:47.123Z,55.38
2018-05-03T09:16:47.229Z,54.80
2018-05-03T09:17:47.320Z,54.61
2018-05-03T09:18:47.425Z,54.33
2018-05-03T09:19:47.531Z,53.85
2018-05-03T09:20:47.677Z,53.49
2018-05-03T09:21:47.828Z,53.85
2018-05-03T09:22:47.852Z,54.23
2018-05-03T09:23:47.873Z,55.47
2018-05-03T09:24:48.051Z,54.16
2018-05-03T09:25:48.092Z,53.20
2018-05-03T09:26:48.099Z,53.85
2018-05-03T09:27:48.203Z,54.78
2018-05-03T09:28:48.294Z,54.61
2018-05-03T09:29:48.383Z,54.39
2018-05-03T09:30:48.500Z,55.16
2018-05-03T09:31:48.603Z,55.10
2018-05-03T09:32:48.693Z,54.80
2018-05-03T09:33:48.809Z,54.90
2018-05-03T09:34:48.901Z,54.13
2018-05-03T09:35:48.972Z,54.88
2018-05-03T09:36:49.081Z,56.19
2018-05-03T09:37:49.198Z,56.12
2018-05-03T09:38:49.283Z,56.38
2018-05-03T09:39:49.439Z,56.41
2018-05-03T09:40:49.490Z,56.31
2018-05-03T09:41:49.576Z,55.55
2018-05-03T09:42:49.662Z,56.02
2018-05-03T09:43:49.781Z,56.70
2018-05-03T09:44:49.882Z,55.64
2018-05-03T09:45:49.959Z,55.55
2018-05-03T09:46:50.067Z,55.67
2018-05-03T09:47:50.199Z,54.71
2018-05-03T09:48:50.208Z,54.71
2018-05-03T09:49:50.341Z,54.64
2018-05-03T09:50:50.425Z,54.55
2018-05-03T09:51:50.495Z,53.97
2018-05-03T09:52:50.610Z,53.13
2018-05-03T09:53:50.729Z,54.00
2018-05-03T09:54:50.834Z,53.42
2018-05-03T09:55:50.960Z,52.36
2018-05-03T09:56:51.071Z,51.62
2018-05-03T09:57:51.164Z,50.85
2018-05-03T09:58:51.258Z,51.11
2018-05-03T09:59:51.385Z,51.11
2018-05-03T10:00:51.488Z,51.59
2018-05-03T10:01:51.599Z,52.53
2018-05-03T10:02:51.798Z,52.72
2018-05-03T10:03:51.752Z,52.89
2018-05-03T10:04:51.933Z,53.49
2018-05-03T10:05:51.969Z,53.11
2018-05-03T10:06:52.072Z,53.11
2018-05-03T10:07:52.190Z,52.72
2018-05-03T10:08:52.273Z,52.43
2018-05-03T10:09:52.373Z,52.34
2018-05-03T10:10:52.477Z,52.72
2018-05-03T10:11:52.578Z,53.11
2018-05-03T10:12:52.678Z,53.20
2018-05-03T10:13:52.780Z,52.24
2018-05-03T10:14:52.885Z,51.47
2018-05-03T10:15:52.983Z,52.53
2018-05-03T10:16:53.086Z,52.34
2018-05-03T10:17:53.184Z,52.53
2018-05-03T10:18:53.288Z,52.91
2018-05-03T10:19:53.387Z,53.20
2018-05-03T10:20:53.492Z,53.11
2018-05-03T10:21:53.594Z,53.20
2018-05-03T10:22:53.699Z,52.91
2018-05-03T10:23:53.797Z,53.49
2018-05-03T10:24:53.900Z,54.16
2018-05-03T10:25:54.002Z,54.06
2018-05-03T10:26:54.101Z,53.58
2018-05-03T10:27:54.202Z,53.20
2018-05-03T10:28:54.306Z,53.56
2018-05-03T10:29:54.446Z,54.42
2018-05-03T10:30:54.507Z,54.61
2018-05-03T10:31:54.609Z,55.83
2018-05-03T10:32:54.707Z,56.67
2018-05-03T10:33:54.806Z,56.41
2018-05-03T10:34:54.913Z,56.76
2018-05-03T10:35:55.083Z,58.01
2018-05-03T10:36:55.112Z,57.53
2018-05-03T10:37:55.216Z,57.63
2018-05-03T10:38:55.316Z,58.46
2018-05-03T10:39:55.418Z,59.04
2018-05-03T10:40:55.516Z,58.78
2018-05-03T10:41:55.693Z,58.59
2018-05-03T10:42:55.717Z,58.69
2018-05-03T10:43:55.818Z,57.53
2018-05-03T10:44:55.923Z,57.82
2018-05-03T10:45:56.024Z,57.06
2018-05-03T10:46:56.124Z,58.01
2018-05-03T10:47:56.226Z,58.33
2018-05-03T10:48:56.319Z,58.01
2018-05-03T10:49:56.420Z,57.06
2018-05-03T10:50:56.520Z,56.22
2018-05-03T10:51:56.611Z,56.41
2018-05-03T10:52:56.725Z,56.51
2018-05-03T10:53:56.825Z,56.44
2018-05-03T10:54:56.933Z,54.52
2018-05-03T10:55:57.034Z,53.36
2018-05-03T10:56:57.134Z,54.23
2018-05-03T10:57:57.237Z,54.25
2018-05-03T10:58:57.322Z,54.25
2018-05-03T10:59:57.441Z,53.03
2018-05-03T11:00:57.541Z,51.31
2018-05-03T11:01:57.643Z,51.11
2018-05-03T11:02:57.744Z,51.21
2018-05-03T11:03:57.848Z,51.11
2018-05-03T11:04:57.945Z,51.28
2018-05-03T11:05:58.047Z,53.30
2018-05-03T11:06:58.147Z,53.30
2018-05-03T11:07:58.250Z,53.27
2018-05-03T11:08:58.349Z,53.63
2018-05-03T11:09:58.451Z,54.30
2018-05-03T11:10:58.556Z,55.45
2018-05-03T11:11:58.655Z,54.68
2018-05-03T11:12:58.762Z,53.72
2018-05-03T11:13:58.860Z,52.48
2018-05-03T11:14:58.965Z,52.19
2018-05-03T11:15:59.067Z,51.54
2018-05-03T11:16:59.175Z,50.68
2018-05-03T11:17:59.275Z,50.70
2018-05-03T11:18:59.375Z,50.80
2018-05-03T11:19:59.469Z,51.31
2018-05-03T11:20:59.651Z,52.26
2018-05-03T11:21:59.709Z,51.59
2018-05-03T11:22:59.848Z,51.40
2018-05-03T11:23:59.938Z,51.28
2018-05-03T11:25:00.061Z,51.54
2018-05-03T11:26:00.177Z,52.40
2018-05-03T11:27:00.331Z,52.53
2018-05-03T11:28:00.310Z,51.09
2018-05-03T11:29:00.421Z,50.70
2018-05-03T11:30:00.659Z,50.32
2018-05-03T11:31:00.708Z,49.36
2018-05-03T11:32:00.724Z,48.71
2018-05-03T11:33:00.820Z,48.33
2018-05-03T11:34:00.918Z,48.23
2018-05-03T11:35:01.185Z,48.43
2018-05-03T11:36:01.078Z,48.74
2018-05-03T11:37:01.202Z,49.57
2018-05-03T11:38:01.274Z,49.19
2018-05-03T11:39:01.363Z,49.57
2018-05-03T11:40:01.495Z,49.57
2018-05-03T11:41:01.630Z,49.65
2018-05-03T11:42:01.720Z,49.74
2018-05-03T11:43:01.873Z,50.87
2018-05-03T11:44:01.972Z,52.09
2018-05-03T11:45:02.108Z,51.32
2018-05-03T11:46:02.231Z,52.86
2018-05-03T11:47:02.313Z,52.48
2018-05-03T11:48:02.438Z,52.38
2018-05-03T11:49:02.550Z,52.60
2018-05-03T11:50:02.648Z,50.56
2018-05-03T11:51:02.733Z,49.43
2018-05-03T11:52:02.858Z,49.33
2018-05-03T11:53:02.955Z,48.85
2018-05-03T11:54:03.044Z,49.17
2018-05-03T11:55:03.150Z,50.32
2018-05-03T11:56:03.241Z,51.37
2018-05-03T11:57:03.355Z,52.24
2018-05-03T11:58:03.446Z,52.43
2018-05-03T11:59:03.559Z,51.35
2018-05-03T12:00:03.650Z,52.38
2018-05-03T12:01:03.741Z,53.15
2018-05-03T12:02:03.852Z,53.53
2018-05-03T12:03:03.938Z,52.60
2018-05-03T12:04:04.031Z,52.60
2018-05-03T12:05:04.155Z,52.14
2018-05-03T12:06:04.297Z,52.05
2018-05-03T12:07:04.370Z,49.84
2018-05-03T12:08:04.487Z,49.38
2018-05-03T12:09:04.627Z,49.60
2018-05-03T12:10:04.728Z,49.12
2018-05-03T12:11:04.902Z,48.28
2018-05-03T12:12:04.868Z,47.70
2018-05-03T12:13:04.966Z,47.63
2018-05-03T12:14:05.060Z,46.11
2018-05-03T12:15:05.148Z,45.92
2018-05-03T12:16:05.268Z,46.91
2018-05-03T12:17:05.368Z,45.07
2018-05-03T12:18:05.463Z,45.34
2018-05-03T12:19:05.561Z,45.44
2018-05-03T12:20:05.671Z,46.11
2018-05-03T12:21:05.770Z,47.75
2018-05-03T12:22:05.891Z,47.53
2018-05-03T12:23:05.962Z,47.82
2018-05-03T12:24:06.061Z,47.44
2018-05-03T12:25:06.176Z,47.51
2018-05-03T12:26:06.296Z,48.38
2018-05-03T12:27:06.397Z,48.18
2018-05-03T12:28:06.500Z,47.99
2018-05-03T12:29:06.615Z,48.08
2018-05-03T12:30:06.715Z,48.28
2018-05-03T12:31:06.818Z,48.08
2018-05-03T12:32:06.946Z,47.70
2018-05-03T12:33:07.066Z,47.49
2018-05-03T12:34:07.153Z,48.61
2018-05-03T12:35:07.257Z,49.57
2018-05-03T12:36:07.368Z,49.46
2018-05-03T12:37:07.475Z,49.26
2018-05-03T12:38:07.574Z,49.55
2018-05-03T12:39:07.668Z,49.55
2018-05-03T12:40:07.855Z,48.52
2018-05-03T12:41:07.906Z,48.71
2018-05-03T12:42:08.017Z,48.13
2018-05-03T12:43:08.125Z,48.16
2018-05-03T12:44:08.222Z,47.87
2018-05-03T12:45:08.327Z,48.07
2018-05-03T12:46:08.446Z,47.41
2018-05-03T12:47:08.543Z,47.13
2018-05-03T12:48:08.639Z,46.26
2018-05-03T12:49:08.726Z,45.32
2018-05-03T12:50:08.827Z,44.93
2018-05-03T12:51:08.930Z,45.53
2018-05-03T12:52:09.013Z,45.53
2018-05-03T12:53:09.119Z,44.19
2018-05-03T12:54:09.220Z,43.71